KTOL

Toledo Express Airport

Toledo, Ohio, USA
KTOL 230523Z 2306/2406 07005KT P6SM SCT250 FM231600 10010G18KT P6SM FEW060 BKN250 FM232200 12010KT P6SM SCT060 BKN100 FM240500 10010KT P6SM SCT020 OVC035
Issued Valid From Valid To
Apr-23 @ 05:23 UTC
(4 hours ago)
Apr-23 @ 06:00 UTC
(4 hours ago)
Apr-24 @ 06:00 UTC
(in 20 hours)
Apr-23 @ 06:00 to Apr-23 @ 16:00
KTOL 230523Z 2306/2406 07005KT P6SM SCT250
Wind Visibility Clouds
70° at 5 knots Greater than 6 miles
  • Scattered at 25,000' AGL
From Apr-23 @ 16:00 to Apr-23 @ 22:00
FM231600 10010G18KT P6SM FEW060 BKN250
Wind Visibility Clouds
100° at 10 knots
 Gusting to 18 knots
Greater than 6 miles
  • Few at 6,000' AGL
  • Broken at 25,000' AGL
From Apr-23 @ 22:00 to Apr-24 @ 05:00
FM232200 12010KT P6SM SCT060 BKN100
Wind Visibility Clouds
120° at 10 knots Greater than 6 miles
  • Scattered at 6,000' AGL
  • Broken at 10,000' AGL
From Apr-24 @ 05:00 to Apr-24 @ 06:00
FM240500 10010KT P6SM SCT020 OVC035
Wind Visibility Clouds
100° at 10 knots Greater than 6 miles
  • Scattered at 2,000' AGL
  • Overcast at 3,500' AGL
KTOL 230523Z 2306/2406 07005KT P6SM SCT250 FM231600 10010G18KT P6SM FEW060 BKN250 FM232200 12010KT P6SM SCT060 BKN100 FM240500 10010KT P6SM SCT020 OVC035
Issued Apr-23 @ 05:23 UTC
(4 hours ago)
Valid From Apr-23 @ 06:00 UTC
(4 hours ago)
Valid To Apr-24 @ 06:00 UTC
(in 20 hours)
Apr-23 @ 06:00 - Apr-23 @ 16:00
Wind Visibility
70° at 5 knots Greater than 6 miles
Clouds
  • Scattered at 25,000' AGL
From Apr-23 @ 16:00 - Apr-23 @ 22:00
Wind Visibility
100° at 10 knots
 Gusting to 18 knots
Greater than 6 miles
Clouds
  • Few at 6,000' AGL
  • Broken at 25,000' AGL
From Apr-23 @ 22:00 - Apr-24 @ 05:00
Wind Visibility
120° at 10 knots Greater than 6 miles
Clouds
  • Scattered at 6,000' AGL
  • Broken at 10,000' AGL
From Apr-24 @ 05:00 - Apr-24 @ 06:00
Wind Visibility
100° at 10 knots Greater than 6 miles
Clouds
  • Scattered at 2,000' AGL
  • Overcast at 3,500' AGL